Zametcino, Russia
Current Conditions -  °F | °C
As of 3:30 AM on Tuesday 23 Dec 2014 (Local Time) from UUOO Reporting Station
Light Snow Light Snow  
Wind Chill: 27°   Ceiling: 700
Heat Index: 34°   Visibility: 1.3mi
Dew Point: 32°   Wind: 9mph
Humidity: 93%   Direction: 190°S
Pressure: 29.5"   Gusts: 16mph
Location:  53.48°N, 42.63°E
Report Text: UUOO 230030Z 19004G07MPS 2200 -SN OVC007 01/M00 Q0999 NOSIG RMK30490145
Loading
Personal Weather Stations






























Interactive Weather Map New forecast layout! Learn more

10-Day Weather Forecast

Advertisements
Track Severe Weather on mobile